createdAt,value
2022-10-19T00:01:25.541Z,67.89
2022-10-19T00:03:56.328Z,68.01
2022-10-19T00:06:30.855Z,68.69
2022-10-19T00:09:03.078Z,68.44
2022-10-19T00:11:33.908Z,68.15
2022-10-19T00:14:03.509Z,67.84
2022-10-19T00:16:36.299Z,67.54
2022-10-19T00:19:08.837Z,67.70
2022-10-19T00:21:37.996Z,68.49
2022-10-19T00:24:07.853Z,67.95
2022-10-19T00:26:36.777Z,68.18
2022-10-19T00:29:06.279Z,67.80
2022-10-19T00:31:35.378Z,68.23
2022-10-19T00:34:03.975Z,67.90
2022-10-19T00:36:35.724Z,67.85
2022-10-19T00:39:06.514Z,68.09
2022-10-19T00:41:37.505Z,68.24
2022-10-19T00:44:08.233Z,68.07
2022-10-19T00:46:40.250Z,68.29
2022-10-19T00:49:13.912Z,68.11
2022-10-19T00:51:46.561Z,68.04
2022-10-19T00:54:17.111Z,67.96
2022-10-19T00:56:49.485Z,67.94
2022-10-19T00:59:20.899Z,68.15
2022-10-19T01:01:50.341Z,68.18
2022-10-19T01:04:21.809Z,67.99
2022-10-19T01:09:19.473Z,68.15
2022-10-19T01:11:56.963Z,68.48
2022-10-19T01:14:47.360Z,68.34
2022-10-19T01:17:24.876Z,68.38
2022-10-19T01:19:59.383Z,68.63
2022-10-19T01:23:00.878Z,68.56
2022-10-19T01:26:00.589Z,68.72
2022-10-19T01:28:32.160Z,69.08
2022-10-19T01:31:19.835Z,68.92
2022-10-19T01:34:05.107Z,68.83
2022-10-19T01:36:39.634Z,68.85
2022-10-19T01:39:53.988Z,68.82
2022-10-19T01:42:31.829Z,69.17
2022-10-19T01:45:09.823Z,69.30
2022-10-19T01:48:01.007Z,68.86
2022-10-19T01:50:36.245Z,68.76
2022-10-19T01:53:08.518Z,68.68
2022-10-19T01:55:42.963Z,69.03
2022-10-19T01:58:20.637Z,69.43
2022-10-19T02:00:52.973Z,69.55
2022-10-19T02:03:23.767Z,69.08
2022-10-19T02:05:54.580Z,69.29
2022-10-19T02:08:29.656Z,69.52
2022-10-19T02:11:00.425Z,69.40
2022-10-19T02:13:30.879Z,69.32
2022-10-19T02:16:03.775Z,69.97
2022-10-19T02:18:37.779Z,69.63
2022-10-19T02:21:07.178Z,69.62
2022-10-19T02:23:36.792Z,69.84
2022-10-19T02:26:06.439Z,70.75
2022-10-19T02:28:36.111Z,70.87
2022-10-19T02:31:05.686Z,71.23
2022-10-19T02:33:34.506Z,71.41
2022-10-19T02:36:03.397Z,71.09
2022-10-19T02:38:32.184Z,71.77
2022-10-19T02:41:00.971Z,71.61
2022-10-19T02:43:32.823Z,71.40
2022-10-19T02:46:23.638Z,71.29
2022-10-19T02:48:53.554Z,71.58
2022-10-19T02:51:30.536Z,71.30
2022-10-19T02:54:01.241Z,71.25
2022-10-19T02:56:34.027Z,71.62
2022-10-19T02:59:04.203Z,71.76
2022-10-19T03:01:32.759Z,71.16
2022-10-19T03:04:01.343Z,71.00
2022-10-19T03:06:29.933Z,70.77
2022-10-19T03:08:58.610Z,70.73
2022-10-19T03:11:27.194Z,70.67
2022-10-19T03:13:56.235Z,70.85
2022-10-19T03:16:24.879Z,70.92
2022-10-19T03:18:53.363Z,70.63
2022-10-19T03:21:22.254Z,70.74
2022-10-19T03:23:51.044Z,70.91
2022-10-19T03:26:19.628Z,70.84
2022-10-19T03:28:48.359Z,70.76
2022-10-19T03:31:17.100Z,70.90
2022-10-19T03:33:46.201Z,70.84
2022-10-19T03:36:25.350Z,70.98
2022-10-19T03:38:58.516Z,70.79
2022-10-19T03:41:29.660Z,70.35
2022-10-19T03:46:32.569Z,70.79
2022-10-19T03:49:01.459Z,71.66
2022-10-19T03:51:31.674Z,71.84
2022-10-19T03:54:03.675Z,71.58
2022-10-19T03:56:34.009Z,71.80
2022-10-19T03:59:05.043Z,72.71
2022-10-19T04:01:39.038Z,71.90
2022-10-19T04:04:12.450Z,71.65
2022-10-19T04:06:43.409Z,71.77
2022-10-19T04:09:14.743Z,71.45
2022-10-19T04:11:43.799Z,71.52
2022-10-19T04:14:22.772Z,72.11
2022-10-19T04:17:02.591Z,71.99
2022-10-19T04:19:31.982Z,71.97
2022-10-19T04:22:00.869Z,72.39
2022-10-19T04:24:29.657Z,72.47
2022-10-19T04:26:58.198Z,71.95
2022-10-19T04:29:29.800Z,72.63
2022-10-19T04:32:00.020Z,72.37
2022-10-19T04:34:28.408Z,72.49
2022-10-19T04:36:59.779Z,72.53
2022-10-19T04:39:28.538Z,72.26
2022-10-19T04:41:57.323Z,72.21
2022-10-19T04:44:25.811Z,72.07
2022-10-19T04:46:54.389Z,72.30
2022-10-19T04:49:23.179Z,72.13
2022-10-19T04:51:51.558Z,71.67
2022-10-19T04:54:20.142Z,71.67
2022-10-19T04:56:48.929Z,71.58
2022-10-19T04:59:17.409Z,73.38
2022-10-19T05:01:47.214Z,72.62
2022-10-19T05:04:16.141Z,72.01
2022-10-19T05:06:45.063Z,72.75
2022-10-19T05:09:13.897Z,72.86
2022-10-19T05:11:42.486Z,72.05
2022-10-19T05:14:11.170Z,71.89
2022-10-19T05:16:39.860Z,71.68
2022-10-19T05:19:08.541Z,71.43
2022-10-19T05:21:37.024Z,70.98
2022-10-19T05:24:05.812Z,70.74
2022-10-19T05:26:34.502Z,70.53
2022-10-19T05:29:04.795Z,70.23
2022-10-19T05:31:35.152Z,70.17
2022-10-19T05:34:04.740Z,70.16
2022-10-19T05:36:37.952Z,70.07
2022-10-19T05:39:12.304Z,69.81
2022-10-19T05:41:43.105Z,69.66
2022-10-19T05:44:18.739Z,69.55
2022-10-19T05:46:48.258Z,68.98
2022-10-19T05:49:19.208Z,69.04
2022-10-19T05:51:48.703Z,68.54
2022-10-19T05:54:17.627Z,67.83
2022-10-19T05:56:47.103Z,67.24
2022-10-19T05:59:18.919Z,66.64
2022-10-19T06:01:48.729Z,67.08
2022-10-19T06:06:50.858Z,64.23
2022-10-19T06:09:19.757Z,64.16
2022-10-19T06:11:48.540Z,65.00
2022-10-19T06:14:17.225Z,64.86
2022-10-19T06:16:48.680Z,64.61
2022-10-19T06:19:17.363Z,64.10
2022-10-19T06:21:46.368Z,64.03
2022-10-19T06:24:15.049Z,64.17
2022-10-19T06:26:43.628Z,64.14
2022-10-19T06:29:12.432Z,63.88
2022-10-19T06:31:41.358Z,63.83
2022-10-19T06:34:09.831Z,62.66
2022-10-19T06:36:38.493Z,63.07
2022-10-19T06:39:06.792Z,62.71
2022-10-19T06:41:35.644Z,63.04
2022-10-19T06:44:19.483Z,62.93
2022-10-19T06:46:48.118Z,62.92
2022-10-19T06:49:16.656Z,62.89
2022-10-19T06:51:45.444Z,62.47
2022-10-19T06:54:13.978Z,62.24
2022-10-19T06:56:42.665Z,62.06
2022-10-19T06:59:14.824Z,62.38
2022-10-19T07:01:43.886Z,62.07
2022-10-19T07:04:12.459Z,61.79
2022-10-19T07:06:40.942Z,61.84
2022-10-19T07:09:09.627Z,62.26
2022-10-19T07:11:42.390Z,61.98
2022-10-19T07:14:14.562Z,61.88
2022-10-19T07:16:43.059Z,61.64
2022-10-19T07:19:13.752Z,61.44
2022-10-19T07:21:44.349Z,61.51
2022-10-19T07:24:12.806Z,61.28
2022-10-19T07:26:41.286Z,61.16
2022-10-19T07:29:09.974Z,61.40
2022-10-19T07:31:38.459Z,59.80
2022-10-19T07:34:07.147Z,60.53
2022-10-19T07:36:36.445Z,60.65
2022-10-19T07:39:07.110Z,60.66
2022-10-19T07:41:35.763Z,60.01
2022-10-19T07:44:04.889Z,59.84
2022-10-19T07:46:34.455Z,60.10
2022-10-19T07:49:05.103Z,59.02
2022-10-19T07:51:34.305Z,58.90
2022-10-19T07:54:03.188Z,59.01
2022-10-19T07:56:32.589Z,58.33
2022-10-19T07:59:02.105Z,58.11
2022-10-19T08:01:34.020Z,58.30
2022-10-19T08:06:51.505Z,56.60
2022-10-19T08:09:40.452Z,57.19
2022-10-19T08:12:12.479Z,56.52
2022-10-19T08:14:43.368Z,57.87
2022-10-19T08:17:16.973Z,56.31
2022-10-19T08:19:47.331Z,57.00
2022-10-19T08:22:15.981Z,56.59
2022-10-19T08:24:44.666Z,57.07
2022-10-19T08:27:15.097Z,55.87
2022-10-19T08:29:43.485Z,55.35
2022-10-19T08:32:12.412Z,55.83
2022-10-19T08:34:41.615Z,56.32
2022-10-19T08:37:20.010Z,55.54
2022-10-19T08:39:54.707Z,55.79
2022-10-19T08:42:34.840Z,56.13
2022-10-19T08:45:19.316Z,55.51
2022-10-19T08:48:18.008Z,54.49
2022-10-19T08:50:48.333Z,52.87
2022-10-19T08:53:29.111Z,53.59
2022-10-19T08:59:38.807Z,51.58
2022-10-19T09:02:38.388Z,51.08
2022-10-19T09:05:34.754Z,50.68
2022-10-19T09:08:03.412Z,50.81
2022-10-19T09:10:43.149Z,50.31
2022-10-19T09:13:46.952Z,50.34
2022-10-19T09:16:29.063Z,50.43
2022-10-19T09:18:58.069Z,49.99
2022-10-19T09:21:47.433Z,50.16
2022-10-19T09:24:36.400Z,50.34
2022-10-19T09:27:06.372Z,48.82
2022-10-19T09:29:56.803Z,47.45
2022-10-19T09:32:32.686Z,47.36
2022-10-19T09:35:05.936Z,47.17
2022-10-19T09:37:42.195Z,47.65
2022-10-19T09:40:26.466Z,46.26
2022-10-19T09:42:59.904Z,46.34
2022-10-19T09:45:48.314Z,45.91
2022-10-19T09:48:32.776Z,46.52
2022-10-19T09:51:11.287Z,45.57
2022-10-19T09:53:50.519Z,45.58
2022-10-19T09:56:26.788Z,45.52
2022-10-19T09:58:59.335Z,45.50
2022-10-19T10:01:43.079Z,45.41
2022-10-19T10:04:17.964Z,45.21
2022-10-19T10:06:48.940Z,45.53
2022-10-19T10:09:19.654Z,44.67
2022-10-19T10:11:51.335Z,44.87
2022-10-19T10:14:54.357Z,45.29
2022-10-19T10:17:30.625Z,45.26
2022-10-19T10:19:59.221Z,44.79
2022-10-19T10:22:31.265Z,44.62
2022-10-19T10:25:00.021Z,44.54
2022-10-19T10:27:35.276Z,44.50
2022-10-19T10:30:16.990Z,44.59
2022-10-19T10:32:53.763Z,44.49
2022-10-19T10:35:36.217Z,44.56
2022-10-19T10:38:09.780Z,44.32
2022-10-19T10:40:40.582Z,44.80
2022-10-19T10:43:21.939Z,44.99
2022-10-19T10:45:55.602Z,45.02
2022-10-19T10:48:28.386Z,44.32
2022-10-19T10:50:58.298Z,44.34
2022-10-19T10:53:45.517Z,44.62
2022-10-19T10:56:29.717Z,44.81
2022-10-19T10:59:05.305Z,45.04
2022-10-19T11:01:40.458Z,45.38
2022-10-19T11:04:17.753Z,45.23
2022-10-19T11:06:58.000Z,45.21
2022-10-19T11:09:31.619Z,44.83
2022-10-19T11:12:04.921Z,44.70
2022-10-19T11:14:39.648Z,44.90
2022-10-19T11:17:17.253Z,45.50
2022-10-19T11:19:46.113Z,45.14
2022-10-19T11:22:36.272Z,44.92
2022-10-19T11:25:21.942Z,44.46
2022-10-19T11:28:08.902Z,45.02
2022-10-19T11:31:02.368Z,42.92
2022-10-19T11:33:40.347Z,42.75
2022-10-19T11:36:43.280Z,42.99
2022-10-19T11:39:23.622Z,42.94
2022-10-19T11:42:23.750Z,42.95
2022-10-19T11:45:03.394Z,43.91
2022-10-19T11:47:51.124Z,43.24
2022-10-19T11:50:54.207Z,43.11
2022-10-19T11:53:42.362Z,41.92
2022-10-19T11:56:27.704Z,42.69
2022-10-19T11:59:24.177Z,42.09
2022-10-19T12:02:02.104Z,41.31
2022-10-19T12:04:58.120Z,42.50
2022-10-19T12:07:52.085Z,42.33
2022-10-19T12:10:34.927Z,42.42
2022-10-19T12:13:09.201Z,42.50
2022-10-19T12:15:53.836Z,42.70
2022-10-19T12:18:46.839Z,42.97
2022-10-19T12:21:20.644Z,42.18
2022-10-19T12:23:50.190Z,41.70
2022-10-19T12:26:22.581Z,41.88
2022-10-19T12:28:55.868Z,42.54
2022-10-19T12:31:26.769Z,42.22
2022-10-19T12:34:01.876Z,42.40
2022-10-19T12:36:43.688Z,42.63
2022-10-19T12:39:20.982Z,42.90
2022-10-19T12:42:04.407Z,43.33
2022-10-19T12:45:08.682Z,43.99
2022-10-19T12:47:37.541Z,45.11
2022-10-19T12:50:07.709Z,45.78
2022-10-19T12:52:49.126Z,45.89
2022-10-19T12:55:35.140Z,45.94
2022-10-19T12:58:20.188Z,45.73
2022-10-19T13:01:04.932Z,45.58
2022-10-19T13:03:37.256Z,45.53
2022-10-19T13:06:13.395Z,45.64
2022-10-19T13:09:04.560Z,45.69
2022-10-19T13:14:06.778Z,45.76
